createdAt,value
2018-03-23T00:01:20.118Z,5.63
2018-03-23T00:04:25.626Z,5.20
2018-03-23T00:07:31.252Z,5.10
2018-03-23T00:10:36.759Z,4.53
2018-03-23T00:13:42.087Z,4.80
2018-03-23T00:16:47.605Z,4.83
2018-03-23T00:19:53.172Z,4.27
2018-03-23T00:22:58.716Z,3.20
2018-03-23T00:26:05.906Z,4.37
2018-03-23T00:29:11.929Z,4.97
2018-03-23T00:32:21.038Z,4.57
2018-03-23T00:35:26.605Z,3.30
2018-03-23T00:38:32.164Z,3.17
2018-03-23T00:41:38.610Z,5.13
2018-03-23T00:44:46.979Z,3.53
2018-03-23T00:47:54.067Z,3.53
2018-03-23T00:51:01.493Z,3.87
2018-03-23T00:54:07.539Z,4.17
2018-03-23T00:57:13.066Z,4.20
2018-03-23T01:00:18.630Z,2.93
2018-03-23T01:03:24.190Z,2.77
2018-03-23T01:06:29.795Z,3.10
2018-03-23T01:09:35.290Z,2.60
2018-03-23T01:12:40.833Z,6.60
2018-03-23T01:15:46.342Z,2.90
2018-03-23T01:18:52.166Z,2.47
2018-03-23T01:21:57.509Z,3.17
2018-03-23T01:25:03.052Z,2.60
2018-03-23T01:28:08.563Z,2.93
2018-03-23T01:31:14.113Z,2.30
2018-03-23T01:34:19.650Z,2.03
2018-03-23T01:37:25.307Z,2.00
2018-03-23T01:40:34.002Z,1.90
2018-03-23T01:43:39.555Z,1.90
2018-03-23T01:46:45.079Z,1.70
2018-03-23T01:49:50.631Z,1.70
2018-03-23T01:52:56.179Z,2.27
2018-03-23T01:56:01.736Z,1.20
2018-03-23T01:59:07.286Z,1.30
2018-03-23T02:02:12.790Z,1.13
2018-03-23T02:05:18.340Z,1.13
2018-03-23T02:08:23.879Z,1.03
2018-03-23T02:11:29.445Z,1.37
2018-03-23T02:14:34.956Z,0.77
2018-03-23T02:17:40.519Z,1.70
2018-03-23T02:20:45.758Z,0.87
2018-03-23T02:23:51.319Z,1.20
2018-03-23T02:26:56.958Z,0.90
2018-03-23T02:30:02.366Z,0.90
2018-03-23T02:33:07.888Z,0.90
2018-03-23T02:36:13.445Z,0.80
2018-03-23T02:39:19.146Z,0.70
2018-03-23T02:42:26.077Z,0.80
2018-03-23T02:45:31.647Z,0.97
2018-03-23T02:48:37.229Z,0.80
2018-03-23T02:51:42.787Z,1.67
2018-03-23T02:54:48.309Z,0.60
2018-03-23T02:57:54.293Z,0.90
2018-03-23T03:00:59.848Z,0.67
2018-03-23T03:04:05.273Z,0.70
2018-03-23T03:07:10.821Z,0.70
2018-03-23T03:10:16.210Z,0.50
2018-03-23T03:13:21.796Z,0.93
2018-03-23T03:16:27.302Z,0.80
2018-03-23T03:19:32.877Z,0.80
2018-03-23T03:22:38.466Z,2.50
2018-03-23T03:25:43.973Z,0.77
2018-03-23T03:28:49.518Z,0.73
2018-03-23T03:32:03.083Z,2.93
2018-03-23T03:35:46.029Z,0.60
2018-03-23T03:38:56.470Z,0.63
2018-03-23T03:42:06.996Z,0.97
2018-03-23T03:45:17.483Z,0.70
2018-03-23T03:48:26.505Z,1.10
2018-03-23T03:51:37.894Z,0.73
2018-03-23T03:54:46.713Z,1.07
2018-03-23T03:57:54.182Z,1.17
2018-03-23T04:01:01.945Z,0.63
2018-03-23T04:04:10.523Z,0.70
2018-03-23T04:07:18.691Z,0.70
2018-03-23T04:10:32.246Z,0.97
2018-03-23T04:13:37.811Z,0.70
2018-03-23T04:16:43.324Z,0.70
2018-03-23T04:19:48.894Z,1.37
2018-03-23T04:22:54.391Z,0.90
2018-03-23T04:25:59.960Z,2.20
2018-03-23T04:29:05.518Z,0.97
2018-03-23T04:32:11.081Z,0.90
2018-03-23T04:35:16.577Z,0.83
2018-03-23T04:38:22.114Z,1.00
2018-03-23T04:41:27.609Z,2.17
2018-03-23T04:44:33.158Z,0.93
2018-03-23T04:47:38.640Z,1.00
2018-03-23T04:50:44.184Z,0.70
2018-03-23T04:53:49.731Z,1.53
2018-03-23T04:56:55.289Z,0.50
2018-03-23T05:00:00.780Z,0.80
2018-03-23T05:03:06.342Z,3.17
2018-03-23T05:06:12.086Z,0.90
2018-03-23T05:09:22.836Z,0.80
2018-03-23T05:12:36.744Z,1.83
2018-03-23T05:15:44.468Z,0.80
2018-03-23T05:18:50.198Z,0.80
2018-03-23T05:21:55.920Z,0.60
2018-03-23T05:25:01.491Z,0.80
2018-03-23T05:28:07.059Z,1.03
2018-03-23T05:31:12.554Z,0.77
2018-03-23T05:34:18.101Z,0.80
2018-03-23T05:37:23.634Z,1.20
2018-03-23T05:40:32.254Z,0.77
2018-03-23T05:43:37.793Z,1.00
2018-03-23T05:46:43.293Z,0.90
2018-03-23T05:49:48.842Z,0.93
2018-03-23T05:52:54.427Z,1.00
2018-03-23T05:55:59.972Z,1.40
2018-03-23T05:59:05.521Z,0.83
2018-03-23T06:02:11.102Z,1.77
2018-03-23T06:05:16.452Z,0.83
2018-03-23T06:08:21.994Z,1.10
2018-03-23T06:11:27.493Z,1.00
2018-03-23T06:14:33.033Z,1.57
2018-03-23T06:17:38.542Z,1.30
2018-03-23T06:20:44.096Z,1.10
2018-03-23T06:23:49.588Z,1.40
2018-03-23T06:26:55.117Z,0.90
2018-03-23T06:30:00.659Z,1.07
2018-03-23T06:33:06.242Z,1.30
2018-03-23T06:36:11.733Z,1.70
2018-03-23T06:39:20.666Z,1.33
2018-03-23T06:42:29.759Z,1.40
2018-03-23T06:45:35.309Z,1.70
2018-03-23T06:48:40.840Z,1.30
2018-03-23T06:51:47.060Z,3.10
2018-03-23T06:54:53.044Z,1.60
2018-03-23T06:57:58.618Z,2.10
2018-03-23T07:01:04.220Z,2.00
2018-03-23T07:04:11.181Z,1.43
2018-03-23T07:07:16.718Z,1.97
2018-03-23T07:10:27.178Z,2.80
2018-03-23T07:13:38.970Z,1.90
2018-03-23T07:16:44.645Z,2.20
2018-03-23T07:19:50.192Z,2.37
2018-03-23T07:22:55.735Z,2.70
2018-03-23T07:26:01.226Z,2.60
2018-03-23T07:29:06.765Z,3.60
2018-03-23T07:32:12.296Z,3.47
2018-03-23T07:35:17.782Z,2.30
2018-03-23T07:38:23.316Z,3.57
2018-03-23T07:41:28.697Z,2.90
2018-03-23T07:44:34.201Z,5.30
2018-03-23T07:47:39.754Z,8.13
2018-03-23T07:50:45.291Z,3.10
2018-03-23T07:53:50.834Z,3.30
2018-03-23T07:56:56.390Z,2.87
2018-03-23T08:00:01.971Z,3.30
2018-03-23T08:03:07.525Z,3.10
2018-03-23T08:06:13.011Z,2.90
2018-03-23T08:09:18.545Z,2.10
2018-03-23T08:12:24.048Z,3.03
2018-03-23T08:15:29.602Z,2.77
2018-03-23T08:18:35.118Z,2.60
2018-03-23T08:21:40.667Z,2.57
2018-03-23T08:24:46.205Z,2.93
2018-03-23T08:27:51.750Z,2.53
2018-03-23T08:30:57.240Z,3.17
2018-03-23T08:34:02.780Z,2.63
2018-03-23T08:37:08.277Z,2.43
2018-03-23T08:40:13.829Z,2.93
2018-03-23T08:43:19.406Z,2.73
2018-03-23T08:46:24.906Z,2.87
2018-03-23T08:49:30.257Z,3.03
2018-03-23T08:52:35.765Z,4.77
2018-03-23T08:55:41.304Z,2.60
2018-03-23T08:58:46.832Z,2.87
2018-03-23T09:01:52.381Z,2.47
2018-03-23T09:04:57.887Z,2.83
2018-03-23T09:08:03.433Z,5.60
2018-03-23T09:11:08.693Z,2.53
2018-03-23T09:14:14.221Z,2.90
2018-03-23T09:17:19.714Z,3.03
2018-03-23T09:20:25.255Z,3.70
2018-03-23T09:23:30.753Z,2.83
2018-03-23T09:26:36.290Z,3.00
2018-03-23T09:29:46.692Z,2.80
2018-03-23T09:32:55.329Z,3.43
2018-03-23T09:36:00.876Z,2.97
2018-03-23T09:39:05.923Z,3.13
2018-03-23T09:42:11.478Z,2.53
2018-03-23T09:45:16.971Z,2.53
2018-03-23T09:48:22.530Z,2.50
2018-03-23T09:51:28.027Z,2.50
2018-03-23T09:54:33.573Z,3.80
2018-03-23T09:57:39.085Z,2.97
2018-03-23T10:00:44.617Z,2.43
2018-03-23T10:03:50.061Z,2.80
2018-03-23T10:06:55.777Z,3.13
2018-03-23T10:10:01.361Z,2.20
2018-03-23T10:13:06.901Z,2.23
2018-03-23T10:16:12.426Z,2.53
2018-03-23T10:19:17.986Z,2.87
2018-03-23T10:22:23.489Z,1.90
2018-03-23T10:25:29.033Z,2.87
2018-03-23T10:28:34.596Z,3.00
2018-03-23T10:31:40.170Z,5.50
2018-03-23T10:34:45.414Z,4.13
2018-03-23T10:37:50.960Z,3.13
2018-03-23T10:40:56.506Z,3.33
2018-03-23T10:44:01.790Z,3.10
2018-03-23T10:47:07.368Z,5.50
2018-03-23T10:50:12.972Z,4.03
2018-03-23T10:53:18.492Z,5.40
2018-03-23T10:56:24.106Z,4.77
2018-03-23T10:59:29.593Z,3.13
2018-03-23T11:02:44.889Z,3.33
2018-03-23T11:05:50.402Z,3.30
2018-03-23T11:08:55.939Z,3.70
2018-03-23T11:12:01.497Z,2.00
2018-03-23T11:15:07.439Z,2.50
2018-03-23T11:18:13.085Z,2.00
2018-03-23T11:21:18.653Z,2.83
2018-03-23T11:24:24.171Z,2.20
2018-03-23T11:27:29.745Z,1.90
2018-03-23T11:30:35.141Z,3.10
2018-03-23T11:33:40.681Z,2.87
2018-03-23T11:36:46.165Z,2.67
2018-03-23T11:39:51.775Z,2.50
2018-03-23T11:42:57.464Z,2.73
2018-03-23T11:46:03.003Z,1.93
2018-03-23T11:49:08.637Z,2.20
2018-03-23T11:52:13.983Z,2.00
2018-03-23T11:55:19.519Z,1.90
2018-03-23T11:58:25.084Z,2.07
2018-03-23T12:01:30.593Z,2.30
2018-03-23T12:04:36.176Z,2.30
2018-03-23T12:07:41.586Z,2.13
2018-03-23T12:10:47.140Z,3.13
2018-03-23T12:13:52.729Z,2.53
2018-03-23T12:16:58.113Z,2.40
2018-03-23T12:20:03.647Z,3.47
2018-03-23T12:23:09.261Z,2.40
2018-03-23T12:26:14.809Z,2.87
2018-03-23T12:29:21.510Z,2.77
2018-03-23T12:32:27.005Z,2.87
2018-03-23T12:35:32.544Z,3.97
2018-03-23T12:38:38.238Z,3.20
2018-03-23T12:41:43.789Z,2.70
2018-03-23T12:44:49.338Z,6.13
2018-03-23T12:47:54.884Z,3.03
2018-03-23T12:51:00.415Z,5.20
2018-03-23T12:57:41.157Z,9.17
2018-03-23T13:00:47.469Z,4.43
2018-03-23T13:03:53.017Z,4.40
2018-03-23T13:06:58.590Z,6.00
2018-03-23T13:10:04.143Z,4.77
2018-03-23T13:13:09.698Z,7.13
2018-03-23T13:16:15.217Z,6.43
2018-03-23T13:19:20.770Z,6.80
2018-03-23T13:22:26.345Z,9.63
2018-03-23T13:25:31.869Z,5.83
2018-03-23T13:28:37.419Z,9.47
2018-03-23T13:31:42.952Z,10.93
2018-03-23T13:34:49.683Z,10.13
2018-03-23T13:37:55.223Z,11.53
2018-03-23T13:41:00.790Z,12.33
2018-03-23T13:44:06.312Z,8.67
2018-03-23T13:47:12.061Z,12.10
2018-03-23T13:50:17.659Z,12.90
2018-03-23T13:53:23.375Z,12.10
2018-03-23T13:56:28.943Z,10.43
2018-03-23T13:59:39.941Z,12.60
2018-03-23T14:02:45.503Z,20.77
2018-03-23T14:05:51.103Z,15.80
2018-03-23T14:08:56.754Z,14.87
2018-03-23T14:12:02.477Z,15.73
2018-03-23T14:15:08.028Z,28.90
2018-03-23T14:18:13.830Z,24.87
2018-03-23T14:21:19.383Z,32.73
2018-03-23T14:24:24.965Z,31.87
2018-03-23T14:27:30.570Z,31.23
2018-03-23T14:30:36.471Z,41.13
2018-03-23T14:33:42.178Z,30.00
2018-03-23T14:36:47.708Z,30.20
2018-03-23T14:39:53.298Z,30.60
2018-03-23T14:42:58.872Z,22.93
2018-03-23T14:46:04.442Z,21.83
2018-03-23T14:49:10.113Z,23.03
2018-03-23T14:52:15.731Z,19.33
2018-03-23T14:55:25.660Z,22.00
2018-03-23T14:58:36.645Z,18.63
2018-03-23T15:01:42.323Z,16.80
2018-03-23T15:04:48.198Z,16.57
2018-03-23T15:07:53.760Z,16.50
2018-03-23T15:10:59.328Z,19.30
2018-03-23T15:14:18.165Z,17.20
2018-03-23T15:17:25.565Z,14.43
2018-03-23T15:20:42.104Z,13.37
2018-03-23T15:24:02.749Z,12.80
2018-03-23T15:27:23.127Z,11.70
2018-03-23T15:30:45.532Z,12.43
2018-03-23T15:33:57.578Z,13.00
2018-03-23T15:37:07.240Z,12.83
2018-03-23T15:40:18.754Z,12.73
2018-03-23T15:43:31.936Z,11.70
2018-03-23T15:46:44.910Z,15.73
2018-03-23T15:49:54.966Z,10.27
2018-03-23T15:53:05.537Z,10.07
2018-03-23T15:56:17.217Z,8.43
2018-03-23T15:59:25.829Z,11.10
2018-03-23T16:02:35.769Z,8.13
2018-03-23T16:05:46.073Z,7.80
2018-03-23T16:08:56.247Z,9.50
2018-03-23T16:12:07.260Z,8.80
2018-03-23T16:15:15.023Z,6.63
2018-03-23T16:18:20.585Z,9.47
2018-03-23T16:21:26.217Z,9.20
2018-03-23T16:24:31.726Z,6.60
2018-03-23T16:27:49.147Z,7.40
2018-03-23T16:31:07.337Z,14.57
2018-03-23T16:34:32.736Z,11.50
2018-03-23T16:41:17.952Z,7.60
2018-03-23T16:44:39.667Z,7.63
2018-03-23T16:48:01.415Z,7.03
2018-03-23T16:51:33.264Z,8.50
2018-03-23T16:54:53.757Z,7.90
2018-03-23T16:58:12.733Z,7.17
2018-03-23T17:01:30.261Z,6.20
2018-03-23T17:04:49.311Z,8.23
2018-03-23T17:08:13.737Z,7.40
2018-03-23T17:11:28.112Z,6.10
2018-03-23T17:14:40.833Z,6.73
2018-03-23T17:17:48.746Z,6.17
2018-03-23T17:21:00.067Z,6.00
2018-03-23T17:24:08.652Z,6.60
2018-03-23T17:27:16.807Z,7.57
2018-03-23T17:30:25.763Z,7.97
2018-03-23T17:33:37.001Z,6.90
2018-03-23T17:36:55.032Z,7.07
2018-03-23T17:40:04.410Z,7.53
2018-03-23T17:43:12.152Z,8.20
2018-03-23T17:46:21.251Z,10.00
2018-03-23T17:49:30.170Z,10.43
2018-03-23T17:52:37.875Z,9.13
2018-03-23T17:55:47.821Z,10.30
2018-03-23T17:58:56.266Z,9.03
2018-03-23T18:02:05.251Z,10.23
2018-03-23T18:05:12.052Z,12.33
2018-03-23T18:08:17.877Z,9.40
2018-03-23T18:11:30.677Z,8.83
2018-03-23T18:14:43.216Z,8.63
2018-03-23T18:17:52.858Z,8.67
2018-03-23T18:21:02.312Z,7.73
2018-03-23T18:24:15.188Z,9.60
2018-03-23T18:27:23.452Z,12.30
2018-03-23T18:30:37.651Z,11.60
2018-03-23T18:33:47.233Z,13.60
2018-03-23T18:36:53.325Z,8.97
2018-03-23T18:40:01.038Z,11.00
2018-03-23T18:43:08.345Z,8.53
2018-03-23T18:46:14.689Z,10.13
2018-03-23T18:49:21.868Z,11.40
2018-03-23T18:52:39.160Z,12.37
2018-03-23T18:55:46.734Z,15.93
2018-03-23T18:58:52.291Z,10.20
2018-03-23T19:02:00.644Z,12.63
2018-03-23T19:05:10.945Z,10.03
2018-03-23T19:08:19.460Z,10.83
2018-03-23T19:11:26.077Z,10.73
2018-03-23T19:14:39.179Z,14.57
2018-03-23T19:18:05.519Z,10.20
2018-03-23T19:21:20.094Z,9.20
2018-03-23T19:24:38.405Z,17.23
2018-03-23T19:27:49.834Z,10.07
2018-03-23T19:31:21.233Z,11.67
2018-03-23T19:34:33.714Z,10.60
2018-03-23T19:37:49.540Z,18.70
2018-03-23T19:40:57.136Z,10.10
2018-03-23T19:44:02.713Z,9.67
2018-03-23T19:47:09.042Z,8.43
2018-03-23T19:50:15.686Z,10.33
2018-03-23T19:53:33.565Z,8.10
2018-03-23T19:56:40.070Z,8.90
2018-03-23T19:59:45.567Z,6.90
2018-03-23T20:02:51.175Z,8.13
2018-03-23T20:05:56.875Z,8.60
2018-03-23T20:09:02.480Z,8.70
2018-03-23T20:12:07.788Z,7.03
2018-03-23T20:15:13.922Z,6.33
2018-03-23T20:18:22.729Z,6.70
2018-03-23T20:21:28.221Z,5.60
2018-03-23T20:24:33.803Z,7.23
2018-03-23T20:27:44.668Z,6.50
2018-03-23T20:30:50.554Z,8.03
2018-03-23T20:33:56.131Z,5.47
2018-03-23T20:37:01.669Z,7.37
2018-03-23T20:40:07.218Z,7.40
2018-03-23T20:43:12.777Z,6.03
2018-03-23T20:46:26.839Z,6.30
2018-03-23T20:49:39.710Z,7.50
2018-03-23T20:52:49.120Z,6.50
2018-03-23T20:55:55.251Z,6.80
2018-03-23T20:59:00.825Z,6.87
2018-03-23T21:02:06.346Z,6.70
2018-03-23T21:05:11.927Z,7.37
2018-03-23T21:08:17.413Z,6.77
2018-03-23T21:11:22.948Z,5.80
2018-03-23T21:14:28.354Z,9.77
2018-03-23T21:17:33.850Z,9.37
2018-03-23T21:20:39.399Z,11.63
2018-03-23T21:23:44.915Z,8.23
2018-03-23T21:26:50.490Z,6.77
2018-03-23T21:29:56.026Z,9.80
2018-03-23T21:33:01.532Z,10.50
2018-03-23T21:36:07.126Z,10.97
2018-03-23T21:39:12.684Z,13.47
2018-03-23T21:42:18.221Z,11.60
2018-03-23T21:45:23.826Z,11.07
2018-03-23T21:48:29.326Z,9.57
2018-03-23T21:51:34.724Z,10.13
2018-03-23T21:54:40.270Z,8.47
2018-03-23T21:57:45.836Z,10.80
2018-03-23T22:00:51.342Z,9.40
2018-03-23T22:03:56.901Z,11.43
2018-03-23T22:07:02.406Z,11.57
2018-03-23T22:10:08.064Z,10.30
2018-03-23T22:13:13.616Z,10.40
2018-03-23T22:16:19.129Z,11.07
2018-03-23T22:19:25.076Z,18.93
2018-03-23T22:22:30.634Z,19.40
2018-03-23T22:25:36.141Z,17.57
2018-03-23T22:28:41.708Z,16.40
2018-03-23T22:31:47.220Z,18.37
2018-03-23T22:34:52.775Z,17.90
2018-03-23T22:37:58.339Z,14.70
2018-03-23T22:41:03.908Z,28.97
2018-03-23T22:44:09.443Z,25.97
2018-03-23T22:47:15.002Z,19.53
2018-03-23T22:50:20.513Z,15.27
2018-03-23T22:53:26.393Z,13.27
2018-03-23T22:56:31.933Z,14.00
2018-03-23T22:59:37.470Z,9.90
2018-03-23T23:02:42.982Z,12.87
2018-03-23T23:05:48.548Z,13.43
2018-03-23T23:08:54.145Z,9.53
2018-03-23T23:11:59.695Z,9.83
2018-03-23T23:15:04.891Z,7.53
2018-03-23T23:18:10.459Z,10.30
2018-03-23T23:21:15.964Z,8.93
2018-03-23T23:24:21.503Z,9.20
2018-03-23T23:27:27.105Z,10.27
2018-03-23T23:30:33.694Z,7.93
2018-03-23T23:33:39.235Z,6.80
2018-03-23T23:36:44.992Z,9.97
2018-03-23T23:39:50.494Z,5.60
2018-03-23T23:42:56.049Z,5.83
2018-03-23T23:46:01.567Z,7.50
2018-03-23T23:49:07.141Z,7.30
2018-03-23T23:52:12.644Z,4.60
2018-03-23T23:55:18.174Z,6.70
2018-03-23T23:58:23.673Z,7.73
